Time;durP1;ratioP1;P1;durP2;ratioP2;P2;SDS_P1;SDS_P2;PMS_P1;PMS_P2;Temp;Humidity;BMP_temperature;BMP_pressure;BME280_temperature;BME280_humidity;BME280_pressure;Samples;Min_cycle;Max_cycle;Signal;HPM_P1;HPM_P2
2021/09/07 00:00:29;;;;;;;11.53;10.53;;;17.90;99.90;;;;;;10505630;28;20723;-82
2021/09/07 00:05:38;;;;;;;11.03;10.07;;;17.90;99.90;;;;;;10505153;28;20209;-82
2021/09/07 00:10:43;;;;;;;10.80;9.73;;;17.90;99.90;;;;;;10506498;28;20273;-81
2021/09/07 00:15:48;;;;;;;10.73;9.83;;;17.90;99.90;;;;;;10502132;22;20291;-83
2021/09/07 00:20:51;;;;;;;12.00;10.90;;;17.80;99.90;;;;;;10494970;28;20223;-82
2021/09/07 00:25:54;;;;;;;11.57;10.60;;;17.80;99.90;;;;;;10511247;28;20234;-83
2021/09/07 00:30:56;;;;;;;11.37;10.47;;;17.70;99.90;;;;;;10526959;28;20196;-83
2021/09/07 00:35:59;;;;;;;11.30;10.40;;;17.70;99.90;;;;;;10547416;28;20690;-83
2021/09/07 00:41:02;;;;;;;11.10;9.93;;;17.70;99.90;;;;;;10545087;28;20222;-83
2021/09/07 00:46:04;;;;;;;12.50;11.40;;;17.60;99.90;;;;;;10527013;28;20289;-83
2021/09/07 00:51:07;;;;;;;12.20;11.10;;;17.60;99.90;;;;;;10545038;28;20196;-83
2021/09/07 00:56:11;;;;;;;11.50;10.57;;;17.60;99.90;;;;;;10542497;28;20267;-83
2021/09/07 01:01:13;;;;;;;11.10;10.10;;;17.60;99.90;;;;;;10520520;28;20219;-83
2021/09/07 01:06:19;;;;;;;13.80;12.50;;;17.50;99.90;;;;;;10540144;28;20227;-83
2021/09/07 01:11:22;;;;;;;11.83;10.73;;;17.40;99.90;;;;;;10523851;28;20196;-83
2021/09/07 01:16:25;;;;;;;13.10;11.10;;;17.40;99.90;;;;;;10539999;28;20284;-82
2021/09/07 01:21:30;;;;;;;11.73;10.80;;;17.40;99.90;;;;;;10401772;28;20218;-82
2021/09/07 01:26:34;;;;;;;11.77;10.77;;;17.30;99.90;;;;;;10345014;28;20782;-82
2021/09/07 01:31:36;;;;;;;12.00;10.80;;;17.30;99.90;;;;;;10327969;28;20230;-82
2021/09/07 01:36:40;;;;;;;12.80;11.67;;;17.30;99.90;;;;;;10327554;28;20222;-82
2021/09/07 01:41:44;;;;;;;12.40;11.30;;;17.20;99.90;;;;;;10327167;28;20250;-82
2021/09/07 01:46:46;;;;;;;12.33;11.03;;;17.20;99.90;;;;;;10328298;28;20618;-82
2021/09/07 01:51:48;;;;;;;12.50;11.40;;;17.20;99.90;;;;;;10298690;28;20769;-83
2021/09/07 01:56:52;;;;;;;12.57;11.23;;;17.20;99.90;;;;;;10304442;28;20231;-82
2021/09/07 02:01:54;;;;;;;13.30;12.30;;;17.20;99.90;;;;;;10286205;28;20228;-82
2021/09/07 02:06:57;;;;;;;12.90;11.90;;;17.10;99.90;;;;;;10286037;28;20223;-82
2021/09/07 02:12:01;;;;;;;12.90;11.73;;;17.10;99.90;;;;;;10302478;28;20278;-83
2021/09/07 02:17:05;;;;;;;12.27;11.17;;;17.10;99.90;;;;;;10301916;28;20357;-83
2021/09/07 02:22:07;;;;;;;12.77;11.77;;;17.10;99.90;;;;;;10366452;28;20281;-83
2021/09/07 02:27:11;;;;;;;18.63;11.80;;;17.10;99.90;;;;;;10397342;28;20702;-83
2021/09/07 02:32:14;;;;;;;12.07;11.03;;;17.10;99.90;;;;;;10331948;28;20242;-83
2021/09/07 02:37:16;;;;;;;12.70;11.70;;;17.00;99.90;;;;;;10329219;28;20306;-83
2021/09/07 02:42:20;;;;;;;12.73;11.53;;;17.00;99.90;;;;;;10328649;28;20314;-83
2021/09/07 02:47:22;;;;;;;12.90;11.70;;;16.90;99.90;;;;;;10311322;28;20598;-83
2021/09/07 02:52:24;;;;;;;13.27;12.00;;;17.00;99.90;;;;;;10326588;28;20207;-82
2021/09/07 02:57:29;;;;;;;12.10;11.00;;;16.90;99.90;;;;;;10333525;28;20234;-82
2021/09/07 03:02:33;;;;;;;12.80;11.70;;;16.90;99.90;;;;;;10319326;28;20222;-83
2021/09/07 03:07:35;;;;;;;12.63;11.43;;;16.90;99.90;;;;;;10332066;28;20223;-83
2021/09/07 03:12:39;;;;;;;12.53;11.50;;;16.80;99.90;;;;;;10333077;28;20567;-83
2021/09/07 03:17:42;;;;;;;12.40;11.40;;;16.80;99.90;;;;;;10316332;28;20245;-83
2021/09/07 03:22:45;;;;;;;12.90;11.80;;;16.80;99.90;;;;;;10329803;28;20223;-83
2021/09/07 03:27:49;;;;;;;9.70;8.90;;;16.80;99.90;;;;;;10317160;28;20291;-83
2021/09/07 03:32:53;;;;;;;13.17;11.90;;;16.70;99.90;;;;;;10334127;28;20208;-83
2021/09/07 03:37:55;;;;;;;12.33;11.23;;;16.70;99.90;;;;;;10318548;28;20231;-83
2021/09/07 03:42:59;;;;;;;13.23;12.03;;;16.70;99.90;;;;;;10388185;28;20277;-83
2021/09/07 03:48:01;;;;;;;13.47;12.27;;;16.70;99.90;;;;;;10348390;28;20691;-83
2021/09/07 03:53:04;;;;;;;12.13;11.03;;;16.70;99.90;;;;;;10312085;28;20210;-83
2021/09/07 03:58:07;;;;;;;17.37;15.77;;;16.60;99.90;;;;;;10332861;28;20231;-83
2021/09/07 04:03:15;;;;;;;14.40;10.80;;;16.60;99.90;;;;;;10345524;28;20231;-83
2021/09/07 04:08:17;;;;;;;12.80;11.60;;;16.50;99.90;;;;;;10316476;28;20608;-83
2021/09/07 04:13:23;;;;;;;13.10;12.00;;;16.50;99.90;;;;;;10334755;28;20219;-83
2021/09/07 04:18:25;;;;;;;14.87;13.50;;;16.50;99.90;;;;;;10314169;28;20284;-83
2021/09/07 04:23:29;;;;;;;14.70;13.30;;;16.50;99.90;;;;;;10308162;28;20284;-83
2021/09/07 04:28:32;;;;;;;14.50;13.20;;;16.50;99.90;;;;;;10331127;28;20223;-83
2021/09/07 04:33:34;;;;;;;14.63;13.07;;;16.40;99.90;;;;;;10407387;28;20208;-83
2021/09/07 04:38:36;;;;;;;14.60;13.30;;;16.40;99.90;;;;;;10313009;28;20223;-83
2021/09/07 04:43:40;;;;;;;16.43;14.17;;;16.50;99.90;;;;;;10330921;28;20231;-83
2021/09/07 04:48:46;;;;;;;14.17;13.00;;;16.50;99.90;;;;;;10350660;28;20250;-83
2021/09/07 04:53:48;;;;;;;13.93;12.83;;;16.40;99.90;;;;;;10542723;28;20631;-83
2021/09/07 04:58:51;;;;;;;14.40;13.20;;;16.40;99.90;;;;;;10545937;28;20218;-83
2021/09/07 05:03:53;;;;;;;14.90;13.57;;;16.40;99.90;;;;;;10503184;28;20647;-83
2021/09/07 05:08:55;;;;;;;13.83;12.63;;;16.40;99.90;;;;;;10427918;28;20220;-83
2021/09/07 05:13:59;;;;;;;18.10;12.90;;;16.50;99.90;;;;;;10421236;28;20361;-83
2021/09/07 05:19:01;;;;;;;12.90;11.80;;;16.50;99.90;;;;;;10370737;28;20232;-82
2021/09/07 05:24:03;;;;;;;14.03;12.83;;;16.60;99.90;;;;;;10546025;28;20220;-83
2021/09/07 05:29:06;;;;;;;14.67;13.40;;;16.60;99.90;;;;;;10523646;28;20224;-83
2021/09/07 05:34:08;;;;;;;14.70;13.30;;;16.60;99.90;;;;;;10540554;28;20207;-83
2021/09/07 05:39:10;;;;;;;14.90;13.30;;;16.70;99.90;;;;;;10542398;28;20212;-83
2021/09/07 05:44:14;;;;;;;14.07;12.97;;;16.80;99.90;;;;;;10539030;28;20230;-83
2021/09/07 05:49:16;;;;;;;13.67;12.33;;;16.80;99.90;;;;;;10539514;28;20223;-82
2021/09/07 05:54:19;;;;;;;13.97;12.77;;;16.90;99.90;;;;;;10538509;28;20191;-83
2021/09/07 05:59:22;;;;;;;14.47;13.13;;;17.00;99.90;;;;;;10522108;28;20227;-83
2021/09/07 06:04:24;;;;;;;14.30;12.20;;;17.10;99.90;;;;;;10537436;28;20228;-83
2021/09/07 06:09:26;;;;;;;14.67;13.37;;;17.20;99.90;;;;;;10550035;28;20243;-83
2021/09/07 06:14:31;;;;;;;14.60;13.40;;;17.30;99.90;;;;;;10524573;28;20580;-83
2021/09/07 06:19:33;;;;;;;13.63;12.43;;;17.40;99.90;;;;;;10486052;28;20241;-83
2021/09/07 06:24:35;;;;;;;14.40;13.07;;;17.50;99.90;;;;;;10345474;28;20219;-83
2021/09/07 06:29:39;;;;;;;15.47;14.17;;;17.60;99.90;;;;;;10348075;28;20215;-83
2021/09/07 06:34:41;;;;;;;15.40;14.00;;;17.70;99.90;;;;;;10327860;28;20504;-83
2021/09/07 06:39:43;;;;;;;15.53;14.13;;;17.80;99.90;;;;;;10328375;28;20270;-83
2021/09/07 06:44:46;;;;;;;16.27;14.60;;;17.90;99.90;;;;;;10328418;28;20229;-83
2021/09/07 06:49:48;;;;;;;16.10;14.60;;;17.90;99.90;;;;;;10317237;28;20665;-82
2021/09/07 06:54:50;;;;;;;15.23;13.97;;;18.00;99.90;;;;;;10291178;28;20207;-82
2021/09/07 06:59:54;;;;;;;17.37;15.00;;;18.10;99.90;;;;;;10287464;28;20228;-82
2021/09/07 07:04:56;;;;;;;16.50;15.10;;;18.20;99.90;;;;;;10373472;28;20232;-82
2021/09/07 07:09:58;;;;;;;15.60;14.20;;;18.30;99.90;;;;;;10302601;28;20718;-82
2021/09/07 07:15:02;;;;;;;16.17;14.60;;;18.60;99.90;;;;;;10290843;28;20202;-82
2021/09/07 07:20:05;;;;;;;16.87;14.63;;;18.70;99.90;;;;;;10319228;28;20229;-82
2021/09/07 07:25:08;;;;;;;17.93;14.00;;;18.80;99.90;;;;;;10326588;28;20665;-83
2021/09/07 07:30:12;;;;;;;16.40;13.87;;;18.90;99.90;;;;;;10328001;28;20499;-83
2021/09/07 07:35:14;;;;;;;16.37;13.40;;;19.10;99.90;;;;;;10327701;28;20202;-82
2021/09/07 07:40:16;;;;;;;16.77;15.13;;;19.20;99.90;;;;;;10331639;28;20192;-83
2021/09/07 07:45:20;;;;;;;16.03;14.40;;;19.30;99.90;;;;;;10334849;28;20237;-82
2021/09/07 07:50:22;;;;;;;16.07;14.47;;;19.40;99.90;;;;;;10427921;28;20334;-83
2021/09/07 07:55:24;;;;;;;20.53;16.43;;;19.50;99.90;;;;;;10548138;28;20616;-83
2021/09/07 08:00:27;;;;;;;16.07;14.40;;;19.60;99.90;;;;;;10547535;28;20687;-83
2021/09/07 08:05:29;;;;;;;14.90;13.30;;;19.70;99.90;;;;;;10548558;28;20606;-83
2021/09/07 08:10:31;;;;;;;16.03;14.43;;;19.90;99.90;;;;;;10531514;28;20715;-83
2021/09/07 08:15:35;;;;;;;14.70;13.43;;;20.10;99.90;;;;;;10544184;28;20243;-83
2021/09/07 08:20:38;;;;;;;15.60;12.70;;;20.30;99.90;;;;;;10441987;28;20218;-83
2021/09/07 08:25:40;;;;;;;14.93;13.50;;;20.40;99.90;;;;;;10332171;28;20263;-83
2021/09/07 08:30:44;;;;;;;15.57;14.17;;;20.50;99.90;;;;;;10333985;28;20290;-82
2021/09/07 08:35:46;;;;;;;17.50;12.97;;;20.50;99.90;;;;;;10333096;28;20257;-82
2021/09/07 08:40:49;;;;;;;14.70;13.30;;;20.50;99.90;;;;;;10332223;28;20210;-82
2021/09/07 08:45:53;;;;;;;12.90;11.70;;;20.60;99.90;;;;;;10330133;28;20231;-82
2021/09/07 08:50:56;;;;;;;14.03;12.20;;;20.60;99.90;;;;;;10310471;28;20296;-83
2021/09/07 08:55:59;;;;;;;12.93;11.77;;;20.60;99.90;;;;;;10295178;28;20688;-82
2021/09/07 09:01:11;;;;;;;12.27;11.17;;;20.70;99.90;;;;;;10296023;28;20200;-82
2021/09/07 09:06:13;;;;;;;13.63;12.33;;;20.80;99.90;;;;;;10295288;28;20342;-82
2021/09/07 09:11:15;;;;;;;13.87;12.53;;;20.90;99.90;;;;;;10293695;28;20286;-82
2021/09/07 09:16:19;;;;;;;13.10;11.40;;;21.10;99.90;;;;;;10293585;28;20322;-83
2021/09/07 09:21:22;;;;;;;12.53;11.43;;;21.20;99.90;;;;;;10472001;28;20208;-83
2021/09/07 09:26:25;;;;;;;13.17;11.97;;;21.40;99.90;;;;;;10547960;28;20224;-83
2021/09/07 09:31:51;;;;;;;12.87;11.77;;;21.50;99.90;;;;;;10546494;28;20543;-83
2021/09/07 09:37:03;;;;;;;12.63;11.40;;;21.60;99.90;;;;;;10533553;28;20212;-83
2021/09/07 09:42:05;;;;;;;11.70;10.60;;;21.70;99.90;;;;;;10559985;28;20195;-83
2021/09/07 09:47:09;;;;;;;13.60;12.40;;;21.80;99.90;;;;;;10540634;28;20234;-84
2021/09/07 09:52:11;;;;;;;11.90;10.90;;;22.00;99.90;;;;;;10391067;28;20219;-82
2021/09/07 09:57:14;;;;;;;11.53;10.43;;;22.20;99.90;;;;;;10327964;28;20322;-82
2021/09/07 10:02:17;;;;;;;11.47;10.30;;;22.40;99.90;;;;;;10479519;28;20204;-82
2021/09/07 10:07:21;;;;;;;11.77;10.57;;;22.70;99.90;;;;;;10470799;28;20224;-82
2021/09/07 10:12:27;;;;;;;13.00;10.83;;;22.80;99.90;;;;;;10447131;28;20267;-82
2021/09/07 10:17:35;;;;;;;10.67;9.67;;;22.80;99.90;;;;;;10435197;28;20283;-82
2021/09/07 10:28:31;;;;;;;10.40;9.40;;;22.70;99.90;;;;;;10250918;28;20298;-82
2021/09/07 10:33:37;;;;;;;11.20;10.20;;;22.60;99.90;;;;;;10334953;28;20209;-82
2021/09/07 10:38:41;;;;;;;10.07;9.27;;;22.60;99.90;;;;;;10357401;28;20231;-81
2021/09/07 10:43:57;;;;;;;8.97;8.17;;;22.60;99.90;;;;;;10354258;28;20230;-82
2021/09/07 10:49:17;;;;;;;8.20;7.50;;;22.50;97.80;;;;;;10333295;28;20223;-81
2021/09/07 10:54:19;;;;;;;8.70;7.97;;;22.60;97.50;;;;;;10341761;28;20191;-81
2021/09/07 10:59:47;;;;;;;8.37;7.67;;;22.60;97.20;;;;;;10337397;28;20288;-81
2021/09/07 11:04:54;;;;;;;10.37;8.70;;;22.60;99.80;;;;;;10312212;28;20238;-81
2021/09/07 11:09:56;;;;;;;8.47;7.10;;;22.60;99.90;;;;;;10396934;28;20249;-81
2021/09/07 11:15:07;;;;;;;9.73;8.87;;;22.50;99.90;;;;;;10382889;28;20204;-82
2021/09/07 11:20:12;;;;;;;9.33;8.60;;;22.50;96.60;;;;;;10314432;28;20727;-82
2021/09/07 11:25:16;;;;;;;8.80;8.00;;;22.50;99.00;;;;;;10314147;28;20223;-81
2021/09/07 11:30:26;;;;;;;8.53;7.83;;;22.50;97.70;;;;;;10353426;28;20568;-81
2021/09/07 11:35:32;;;;;;;8.70;8.00;;;22.50;98.50;;;;;;10336188;28;20219;-82
2021/09/07 11:40:35;;;;;;;8.20;7.40;;;22.50;99.60;;;;;;10342593;28;20204;-82
2021/09/07 11:45:38;;;;;;;8.90;8.10;;;22.50;99.90;;;;;;10331447;28;20253;-81
2021/09/07 11:50:42;;;;;;;7.40;6.80;;;22.50;97.50;;;;;;10339146;28;20226;-82
2021/09/07 11:55:50;;;;;;;8.57;7.80;;;22.50;98.90;;;;;;10451201;28;20587;-81
2021/09/07 12:01:17;;;;;;;8.37;7.77;;;22.60;93.40;;;;;;10563069;28;20271;-81
2021/09/07 12:06:31;;;;;;;7.33;6.63;;;22.70;96.40;;;;;;10562952;28;20234;-81
2021/09/07 12:11:33;;;;;;;7.97;7.33;;;22.70;95.10;;;;;;10562664;28;20251;-81
2021/09/07 12:16:37;;;;;;;7.67;7.03;;;22.80;94.80;;;;;;10563329;28;20223;-81
2021/09/07 12:21:41;;;;;;;8.70;7.90;;;22.80;95.70;;;;;;10552863;28;20196;-81
2021/09/07 12:26:43;;;;;;;8.13;7.33;;;22.80;96.90;;;;;;10411853;28;20238;-81
2021/09/07 12:31:46;;;;;;;7.70;7.10;;;22.80;93.80;;;;;;10343150;28;20195;-81
2021/09/07 12:36:51;;;;;;;9.00;8.30;;;22.90;92.40;;;;;;10342779;28;20222;-82
2021/09/07 12:41:54;;;;;;;8.67;7.97;;;23.10;91.80;;;;;;10343625;28;20578;-81
2021/09/07 12:46:56;;;;;;;8.63;7.70;;;23.20;91.70;;;;;;10342871;28;20691;-82
2021/09/07 12:51:59;;;;;;;8.50;7.80;;;23.30;94.30;;;;;;10343279;28;20195;-82
2021/09/07 12:57:01;;;;;;;8.17;7.47;;;23.20;93.40;;;;;;10500750;28;20216;-82
2021/09/07 13:02:04;;;;;;;10.07;9.27;;;23.20;96.90;;;;;;10497297;28;20233;-81
2021/09/07 13:07:07;;;;;;;8.47;7.80;;;23.10;93.30;;;;;;10440085;28;20655;-82
2021/09/07 13:12:11;;;;;;;8.87;8.07;;;23.10;92.90;;;;;;10464735;28;20672;-82
2021/09/07 13:17:13;;;;;;;8.60;7.87;;;23.10;94.00;;;;;;10455208;28;20250;-82
2021/09/07 13:22:16;;;;;;;8.17;7.50;;;23.10;93.50;;;;;;10389110;28;20241;-82
2021/09/07 13:27:18;;;;;;;8.37;7.67;;;23.10;93.40;;;;;;10377028;28;20691;-81
2021/09/07 13:32:20;;;;;;;8.60;7.93;;;23.10;96.70;;;;;;10455429;28;20199;-81
2021/09/07 13:37:24;;;;;;;8.47;7.67;;;23.10;95.90;;;;;;10368233;28;20230;-82
2021/09/07 13:42:26;;;;;;;9.80;8.60;;;23.00;97.20;;;;;;10504023;28;20511;-82
2021/09/07 13:47:28;;;;;;;8.50;7.80;;;22.90;99.20;;;;;;10543797;28;20223;-82
2021/09/07 13:52:32;;;;;;;8.30;7.60;;;22.80;95.00;;;;;;10541762;28;20270;-81
2021/09/07 13:57:34;;;;;;;9.50;8.70;;;23.00;95.40;;;;;;10460169;28;20646;-81
2021/09/07 14:02:37;;;;;;;8.60;7.90;;;23.10;93.10;;;;;;10467167;28;20207;-82
2021/09/07 14:07:41;;;;;;;8.73;7.93;;;23.30;92.90;;;;;;10456179;28;20702;-82
2021/09/07 14:12:43;;;;;;;8.33;7.73;;;23.40;93.30;;;;;;10438835;28;20192;-82
2021/09/07 14:17:45;;;;;;;8.70;8.00;;;23.50;95.20;;;;;;10435055;28;20226;-82
2021/09/07 14:22:49;;;;;;;8.67;7.97;;;23.40;97.70;;;;;;10429610;28;20269;-82
2021/09/07 14:27:51;;;;;;;8.47;7.80;;;23.30;98.90;;;;;;10413875;28;20632;-82
2021/09/07 14:32:53;;;;;;;9.23;8.20;;;23.20;99.10;;;;;;10448627;28;20207;-82
2021/09/07 14:37:57;;;;;;;9.60;8.63;;;23.00;98.70;;;;;;10502325;28;20579;-82
2021/09/07 14:42:59;;;;;;;9.57;8.67;;;22.90;98.00;;;;;;10412616;28;20652;-81
2021/09/07 14:48:01;;;;;;;9.00;8.30;;;22.80;96.90;;;;;;10410262;28;20215;-82
2021/09/07 14:53:06;;;;;;;8.73;8.03;;;22.90;97.90;;;;;;10445398;28;20274;-82
2021/09/07 14:58:09;;;;;;;7.90;7.30;;;23.10;97.20;;;;;;10449690;28;20274;-82
2021/09/07 15:03:11;;;;;;;8.70;7.90;;;23.20;96.60;;;;;;10342142;28;20234;-82
2021/09/07 15:08:15;;;;;;;8.33;7.73;;;23.20;94.70;;;;;;10407898;28;20269;-82
2021/09/07 15:13:19;;;;;;;8.30;7.60;;;23.20;92.90;;;;;;10339813;28;20214;-82
2021/09/07 15:18:21;;;;;;;8.63;7.93;;;23.20;96.90;;;;;;10324108;28;20300;-82
2021/09/07 15:23:24;;;;;;;8.13;7.53;;;23.20;97.50;;;;;;10340282;28;20590;-84
2021/09/07 15:28:27;;;;;;;9.77;8.77;;;23.10;98.50;;;;;;10342121;28;20770;-82
2021/09/07 15:33:30;;;;;;;7.83;7.23;;;23.00;97.10;;;;;;10357710;28;20197;-82
2021/09/07 15:38:33;;;;;;;8.77;8.07;;;23.00;95.20;;;;;;10340707;28;20221;-82
2021/09/07 15:43:35;;;;;;;8.13;7.43;;;22.90;98.80;;;;;;10341025;28;20578;-82
2021/09/07 15:48:38;;;;;;;8.47;7.77;;;22.80;94.60;;;;;;10343241;28;20294;-82
2021/09/07 15:53:42;;;;;;;7.90;7.30;;;22.80;95.30;;;;;;10355850;28;20596;-82
2021/09/07 15:58:45;;;;;;;8.70;7.80;;;22.90;95.90;;;;;;10555616;28;20219;-82
2021/09/07 16:03:47;;;;;;;9.40;8.50;;;22.90;96.50;;;;;;10434961;28;20281;-82
2021/09/07 16:08:50;;;;;;;8.00;7.30;;;22.90;96.50;;;;;;10285831;28;20234;-82
2021/09/07 16:13:52;;;;;;;8.97;8.17;;;23.00;97.80;;;;;;10307944;28;20254;-82
2021/09/07 16:18:54;;;;;;;8.37;7.67;;;23.00;98.50;;;;;;10427409;28;20228;-81
2021/09/07 16:23:58;;;;;;;8.63;7.93;;;22.90;98.70;;;;;;10474356;28;20232;-80
2021/09/07 16:29:00;;;;;;;8.13;7.50;;;22.80;99.80;;;;;;10424861;28;20307;-81
2021/09/07 16:34:02;;;;;;;9.77;8.97;;;22.70;99.90;;;;;;10550374;28;20350;-82
2021/09/07 16:39:06;;;;;;;8.57;7.77;;;22.60;99.90;;;;;;10553438;28;20208;-82
2021/09/07 16:44:08;;;;;;;8.80;8.10;;;22.50;99.90;;;;;;10549695;28;20669;-81
2021/09/07 16:49:10;;;;;;;8.37;7.67;;;22.40;99.90;;;;;;10551639;28;20216;-82
2021/09/07 16:54:25;;;;;;;7.20;6.60;;;22.40;99.70;;;;;;10524764;28;20195;-82
2021/09/07 16:59:28;;;;;;;9.00;8.30;;;22.30;99.90;;;;;;10341622;28;20234;-82
2021/09/07 17:04:30;;;;;;;11.00;10.00;;;22.20;99.70;;;;;;10336102;28;20247;-82
2021/09/07 17:09:33;;;;;;;9.90;9.00;;;22.20;99.70;;;;;;10338787;28;20224;-82
2021/09/07 17:14:35;;;;;;;9.77;8.87;;;22.10;99.70;;;;;;10338542;28;20206;-82
2021/09/07 17:19:38;;;;;;;9.93;9.03;;;22.10;99.60;;;;;;10339372;28;20246;-82
2021/09/07 17:24:41;;;;;;;9.80;8.33;;;22.00;99.70;;;;;;10385355;28;20273;-82
2021/09/07 17:29:44;;;;;;;9.60;8.80;;;21.90;99.80;;;;;;10535260;28;20220;-82
2021/09/07 17:34:53;;;;;;;9.73;8.90;;;21.80;99.80;;;;;;10378200;28;20204;-81
2021/09/07 17:45:16;;;;;;;10.10;9.20;;;21.60;99.40;;;;;;10296170;28;20314;-82
2021/09/07 17:50:18;;;;;;;9.37;8.63;;;21.50;99.40;;;;;;10277325;28;20215;-81
2021/09/07 17:55:22;;;;;;;9.10;8.40;;;21.50;99.60;;;;;;10380634;28;20195;-82
2021/09/07 18:00:24;;;;;;;9.50;8.50;;;21.40;99.90;;;;;;10540982;28;20180;-82
2021/09/07 18:05:26;;;;;;;9.13;8.37;;;21.30;99.90;;;;;;10381307;28;20258;-81
2021/09/07 18:10:30;;;;;;;9.50;8.70;;;21.20;99.80;;;;;;10273499;28;20212;-81
2021/09/07 18:15:32;;;;;;;9.37;8.53;;;21.10;99.90;;;;;;10294487;28;20222;-82
2021/09/07 18:20:35;;;;;;;11.67;8.83;;;21.00;99.90;;;;;;10295655;28;20193;-83
2021/09/07 18:25:38;;;;;;;9.03;8.10;;;20.90;99.90;;;;;;10291906;28;20236;-81
2021/09/07 18:30:41;;;;;;;9.13;8.43;;;20.80;99.90;;;;;;10293812;28;20191;-82
2021/09/07 18:35:44;;;;;;;8.93;8.23;;;20.80;99.90;;;;;;10292153;28;20231;-81
2021/09/07 18:40:48;;;;;;;9.20;8.30;;;20.70;99.90;;;;;;10275799;28;20208;-83
2021/09/07 18:45:50;;;;;;;10.50;9.60;;;20.70;99.90;;;;;;10277047;28;20692;-82
2021/09/07 18:50:53;;;;;;;10.43;9.40;;;20.60;99.90;;;;;;10298023;28;20203;-82
2021/09/07 18:55:58;;;;;;;8.93;8.17;;;20.60;99.90;;;;;;10359977;28;20758;-82
2021/09/07 19:01:00;;;;;;;10.53;9.00;;;20.60;99.90;;;;;;10545282;28;20206;-82
2021/09/07 19:06:04;;;;;;;10.43;9.50;;;20.50;99.90;;;;;;10527032;28;20946;-83
2021/09/07 19:11:09;;;;;;;10.70;9.60;;;20.50;99.90;;;;;;10526124;28;20196;-83
2021/09/07 19:16:11;;;;;;;12.10;9.27;;;20.40;99.90;;;;;;10443191;28;20246;-82
2021/09/07 19:21:13;;;;;;;11.10;10.00;;;20.40;99.90;;;;;;10317696;28;20209;-83
2021/09/07 19:26:17;;;;;;;11.27;10.30;;;20.30;99.90;;;;;;10320969;28;20290;-83
2021/09/07 19:31:20;;;;;;;11.07;10.07;;;20.30;99.90;;;;;;10348459;28;20282;-82
2021/09/07 19:36:22;;;;;;;10.87;9.87;;;20.20;99.90;;;;;;10385135;28;20222;-83
2021/09/07 19:41:26;;;;;;;10.77;9.77;;;20.20;99.90;;;;;;10439494;28;20585;-83
2021/09/07 19:46:28;;;;;;;10.90;9.90;;;20.10;99.90;;;;;;10474821;28;20227;-83
2021/09/07 19:51:30;;;;;;;12.27;11.07;;;20.10;99.90;;;;;;10555571;28;20204;-82
2021/09/07 19:56:34;;;;;;;10.83;9.93;;;20.10;99.90;;;;;;10422047;28;20222;-82
2021/09/07 20:01:36;;;;;;;10.23;9.43;;;20.10;99.90;;;;;;10352704;28;20294;-82
2021/09/07 20:06:39;;;;;;;10.57;9.67;;;20.00;99.90;;;;;;10435332;28;20318;-82
2021/09/07 20:11:42;;;;;;;12.00;11.00;;;19.90;99.90;;;;;;10366949;28;20223;-83
2021/09/07 20:16:44;;;;;;;11.33;10.33;;;19.90;99.90;;;;;;10463185;28;20220;-82
2021/09/07 20:21:47;;;;;;;10.70;9.67;;;19.90;99.90;;;;;;10316946;28;20291;-83
2021/09/07 20:26:50;;;;;;;10.70;9.70;;;19.80;99.90;;;;;;10468584;28;20236;-82
2021/09/07 20:31:52;;;;;;;11.90;10.30;;;19.80;99.90;;;;;;10544879;28;20196;-82
2021/09/07 20:36:54;;;;;;;10.93;9.93;;;19.80;99.90;;;;;;10542662;28;20207;-82
2021/09/07 20:41:58;;;;;;;11.27;10.27;;;19.70;99.90;;;;;;10461262;28;20199;-82
2021/09/07 20:47:01;;;;;;;10.87;10.00;;;19.70;99.90;;;;;;10323042;28;20223;-83
2021/09/07 20:52:04;;;;;;;11.30;10.20;;;19.60;99.90;;;;;;10374794;28;20228;-82
2021/09/07 20:57:08;;;;;;;12.20;11.20;;;19.60;99.90;;;;;;10381973;28;20223;-82
2021/09/07 21:02:10;;;;;;;11.90;10.90;;;19.50;99.90;;;;;;10328586;28;20200;-83
2021/09/07 21:07:12;;;;;;;12.37;11.27;;;19.50;99.90;;;;;;10435035;28;20227;-84
2021/09/07 21:12:16;;;;;;;12.10;11.10;;;19.50;99.90;;;;;;10343914;28;20279;-82
2021/09/07 21:17:18;;;;;;;12.83;11.57;;;19.40;99.90;;;;;;10325770;28;20448;-82
2021/09/07 21:22:20;;;;;;;13.03;11.93;;;19.30;99.90;;;;;;10496131;28;20217;-83
2021/09/07 21:27:25;;;;;;;8.73;7.93;;;19.20;99.90;;;;;;10403629;28;20224;-82
2021/09/07 21:32:27;;;;;;;11.63;10.73;;;19.20;99.90;;;;;;10285772;28;20226;-83
2021/09/07 21:37:30;;;;;;;12.70;11.63;;;19.10;99.90;;;;;;10413243;28;20222;-82
2021/09/07 21:42:33;;;;;;;12.40;11.20;;;19.10;99.90;;;;;;10426308;28;20195;-82
2021/09/07 21:47:36;;;;;;;11.30;10.40;;;19.00;99.90;;;;;;10496524;28;20269;-82
2021/09/07 21:52:38;;;;;;;11.03;10.13;;;19.00;99.90;;;;;;10405685;28;20286;-82
2021/09/07 21:57:41;;;;;;;12.77;11.27;;;19.00;99.90;;;;;;10346858;28;20932;-82
2021/09/07 22:02:44;;;;;;;11.30;10.40;;;18.90;99.90;;;;;;10389227;28;20210;-82
2021/09/07 22:07:46;;;;;;;13.50;12.30;;;18.90;99.90;;;;;;10326253;28;20249;-82
2021/09/07 22:12:50;;;;;;;12.50;11.20;;;18.90;99.90;;;;;;10428102;28;20233;-83
2021/09/07 22:17:53;;;;;;;12.13;11.10;;;18.80;99.90;;;;;;10302507;28;20231;-82
2021/09/07 22:22:55;;;;;;;12.50;11.40;;;18.80;99.90;;;;;;10382194;28;20603;-82
2021/09/07 22:27:59;;;;;;;11.07;10.17;;;18.80;99.90;;;;;;10358023;28;20242;-83
2021/09/07 22:33:02;;;;;;;12.20;11.00;;;18.70;99.90;;;;;;10402771;28;20883;-82
2021/09/07 22:38:07;;;;;;;12.70;11.60;;;18.70;99.90;;;;;;10406762;28;20211;-82
2021/09/07 22:43:10;;;;;;;12.17;11.17;;;18.70;99.90;;;;;;10425556;28;20195;-82
2021/09/07 22:48:13;;;;;;;13.00;11.73;;;18.70;99.90;;;;;;10471129;28;20734;-83
2021/09/07 22:53:15;;;;;;;13.57;12.37;;;18.70;99.90;;;;;;10462963;28;20585;-82
2021/09/07 22:58:19;;;;;;;13.17;11.97;;;18.60;99.90;;;;;;10385837;28;20280;-82
2021/09/07 23:03:22;;;;;;;12.90;11.60;;;18.60;99.90;;;;;;10402024;28;20211;-83
2021/09/07 23:08:24;;;;;;;13.13;12.00;;;18.60;99.90;;;;;;10412567;28;20219;-83
2021/09/07 23:13:27;;;;;;;12.73;11.53;;;18.60;99.90;;;;;;10437752;28;20538;-83
2021/09/07 23:18:29;;;;;;;12.93;11.73;;;18.50;99.90;;;;;;10301396;28;20655;-82
2021/09/07 23:23:32;;;;;;;12.07;10.97;;;18.50;99.90;;;;;;10370092;28;20204;-82
2021/09/07 23:28:35;;;;;;;18.90;12.50;;;18.50;99.90;;;;;;10318484;28;20239;-82
2021/09/07 23:33:37;;;;;;;12.63;11.43;;;18.50;99.90;;;;;;10280373;28;20199;-82
2021/09/07 23:38:39;;;;;;;12.90;11.80;;;18.40;99.90;;;;;;10281100;28;20223;-83
2021/09/07 23:43:43;;;;;;;12.80;11.77;;;18.40;99.90;;;;;;10296536;28;20216;-82
2021/09/07 23:48:45;;;;;;;12.83;11.63;;;18.30;99.90;;;;;;10299762;28;20231;-83
2021/09/07 23:53:48;;;;;;;13.67;12.37;;;18.20;99.90;;;;;;10284387;28;20271;-83
2021/09/07 23:58:51;;;;;;;13.57;11.80;;;18.20;99.90;;;;;;10328994;28;20215;-83
